createdAt,value
2023-09-03T00:02:01.781Z,3.05
2023-09-03T00:04:04.993Z,3.33
2023-09-03T00:06:08.001Z,3.13
2023-09-03T00:08:11.744Z,3.22
2023-09-03T00:10:14.587Z,3.60
2023-09-03T00:12:17.367Z,3.75
2023-09-03T00:14:19.337Z,3.42
2023-09-03T00:16:22.187Z,3.78
2023-09-03T00:18:26.407Z,3.83
2023-09-03T00:20:29.327Z,3.22
2023-09-03T00:22:32.132Z,4.13
2023-09-03T00:24:34.958Z,4.25
2023-09-03T00:26:37.850Z,3.65
2023-09-03T00:28:40.698Z,3.38
2023-09-03T00:30:43.289Z,3.20
2023-09-03T00:32:46.819Z,3.13
2023-09-03T00:34:51.069Z,3.17
2023-09-03T00:36:53.914Z,3.15
2023-09-03T00:38:58.343Z,4.40
2023-09-03T00:43:04.818Z,4.13
2023-09-03T00:45:08.790Z,3.70
2023-09-03T00:47:12.224Z,4.03
2023-09-03T00:49:21.897Z,3.33
2023-09-03T00:51:26.766Z,3.40
2023-09-03T00:53:30.494Z,3.63
2023-09-03T00:55:33.668Z,3.65
2023-09-03T00:57:36.676Z,3.35
2023-09-03T00:59:41.332Z,3.20
2023-09-03T01:01:44.275Z,3.50
2023-09-03T01:03:49.017Z,3.65
2023-09-03T01:05:51.937Z,3.58
2023-09-03T01:07:57.148Z,3.95
2023-09-03T01:10:02.302Z,3.53
2023-09-03T01:12:11.652Z,4.22
2023-09-03T01:14:25.821Z,3.35
2023-09-03T01:16:34.937Z,4.28
2023-09-03T01:18:40.816Z,4.25
2023-09-03T01:20:46.793Z,4.60
2023-09-03T01:23:25.042Z,5.15
2023-09-03T01:25:50.122Z,5.50
2023-09-03T01:28:00.427Z,5.25
2023-09-03T01:30:06.422Z,5.18
2023-09-03T01:32:11.828Z,5.10
2023-09-03T01:34:15.349Z,4.95
2023-09-03T01:36:19.906Z,4.70
2023-09-03T01:38:23.848Z,4.57
2023-09-03T01:40:26.806Z,4.10
2023-09-03T01:42:29.654Z,4.35
2023-09-03T01:44:32.776Z,5.05
2023-09-03T01:46:45.923Z,4.90
2023-09-03T01:49:03.861Z,4.40
2023-09-03T01:51:17.723Z,4.43
2023-09-03T01:53:25.659Z,4.45
2023-09-03T01:55:30.654Z,4.32
2023-09-03T01:57:37.137Z,4.25
2023-09-03T01:59:43.948Z,4.35
2023-09-03T02:01:51.517Z,3.72
2023-09-03T02:03:54.650Z,4.32
2023-09-03T02:05:58.006Z,4.13
2023-09-03T02:08:00.900Z,3.65
2023-09-03T02:10:03.785Z,4.20
2023-09-03T02:12:08.612Z,4.43
2023-09-03T02:14:11.492Z,4.68
2023-09-03T02:16:16.217Z,5.45
2023-09-03T02:18:20.597Z,4.70
2023-09-03T02:22:26.267Z,2.83
2023-09-03T02:24:29.084Z,4.47
2023-09-03T02:26:31.016Z,5.03
2023-09-03T02:28:36.090Z,4.90
2023-09-03T02:30:38.977Z,4.05
2023-09-03T02:32:41.937Z,4.18
2023-09-03T02:34:46.156Z,4.07
2023-09-03T02:36:51.308Z,5.28
2023-09-03T02:39:01.290Z,5.43
2023-09-03T02:41:04.129Z,4.88
2023-09-03T02:43:07.171Z,4.90
2023-09-03T02:45:11.014Z,4.60
2023-09-03T02:47:13.809Z,4.03
2023-09-03T02:49:16.892Z,4.85
2023-09-03T02:51:21.952Z,4.07
2023-09-03T02:53:24.847Z,4.60
2023-09-03T02:55:27.776Z,4.40
2023-09-03T02:57:30.644Z,4.25
2023-09-03T02:59:33.736Z,3.90
2023-09-03T03:01:35.727Z,4.40
2023-09-03T03:03:38.886Z,5.03
2023-09-03T03:05:41.801Z,4.38
2023-09-03T03:07:46.233Z,4.57
2023-09-03T03:09:51.033Z,4.78
2023-09-03T03:11:54.137Z,5.28
2023-09-03T03:13:57.309Z,5.30
2023-09-03T03:16:07.243Z,5.07
2023-09-03T03:18:10.569Z,5.70
2023-09-03T03:20:13.828Z,5.35
2023-09-03T03:22:16.855Z,5.47
2023-09-03T03:24:21.886Z,5.10
2023-09-03T03:26:24.985Z,4.93
2023-09-03T03:28:26.887Z,6.00
2023-09-03T03:30:30.453Z,5.55
2023-09-03T03:32:33.442Z,6.22
2023-09-03T03:34:37.203Z,5.80
2023-09-03T03:36:39.158Z,6.40
2023-09-03T03:38:42.144Z,5.82
2023-09-03T03:40:46.363Z,5.20
2023-09-03T03:42:49.223Z,5.32
2023-09-03T03:44:52.091Z,5.05
2023-09-03T03:46:55.155Z,6.05
2023-09-03T03:48:58.458Z,5.40
2023-09-03T03:51:02.411Z,5.80
2023-09-03T03:53:05.616Z,4.53
2023-09-03T03:55:08.956Z,6.00
2023-09-03T03:57:13.335Z,5.22
2023-09-03T03:59:16.186Z,4.50
2023-09-03T04:01:20.696Z,5.28
2023-09-03T04:03:24.866Z,4.25
2023-09-03T04:05:30.431Z,4.82
2023-09-03T04:07:34.108Z,4.35
2023-09-03T04:09:38.618Z,4.72
2023-09-03T04:11:42.578Z,4.65
2023-09-03T04:13:47.120Z,4.18
2023-09-03T04:15:50.064Z,4.47
2023-09-03T04:17:53.007Z,4.75
2023-09-03T04:19:56.418Z,4.68
2023-09-03T04:21:59.275Z,4.00
2023-09-03T04:24:03.682Z,4.13
2023-09-03T04:26:06.741Z,4.00
2023-09-03T04:28:14.133Z,4.50
2023-09-03T04:30:18.548Z,3.92
2023-09-03T04:32:22.338Z,4.22
2023-09-03T04:34:25.518Z,3.67
2023-09-03T04:36:28.423Z,4.00
2023-09-03T04:38:31.813Z,4.07
2023-09-03T04:40:36.292Z,3.58
2023-09-03T04:42:40.267Z,3.88
2023-09-03T04:44:43.780Z,4.30
2023-09-03T04:46:48.079Z,3.63
2023-09-03T04:48:51.058Z,3.95
2023-09-03T04:50:53.993Z,3.90
2023-09-03T04:52:57.981Z,4.43
2023-09-03T04:55:00.786Z,4.13
2023-09-03T04:57:04.033Z,3.90
2023-09-03T04:59:06.946Z,3.95
2023-09-03T05:01:16.784Z,4.10
2023-09-03T05:03:23.162Z,3.38
2023-09-03T05:05:26.737Z,3.78
2023-09-03T05:07:29.822Z,3.20
2023-09-03T05:09:33.061Z,3.20
2023-09-03T05:11:37.200Z,3.80
2023-09-03T05:13:40.310Z,4.13
2023-09-03T05:15:43.952Z,4.05
2023-09-03T05:17:46.859Z,4.03
2023-09-03T05:19:51.324Z,3.47
2023-09-03T05:23:56.912Z,3.97
2023-09-03T05:25:59.914Z,3.30
2023-09-03T05:28:03.385Z,3.30
2023-09-03T05:30:07.933Z,3.50
2023-09-03T05:34:15.300Z,3.55
2023-09-03T05:36:19.600Z,3.13
2023-09-03T05:38:24.396Z,3.50
2023-09-03T05:40:27.335Z,3.20
2023-09-03T05:42:30.201Z,3.80
2023-09-03T05:44:33.303Z,3.15
2023-09-03T05:46:36.167Z,2.78
2023-09-03T05:48:39.057Z,2.97
2023-09-03T05:50:45.657Z,2.78
2023-09-03T05:52:50.656Z,2.97
2023-09-03T05:54:53.604Z,2.38
2023-09-03T05:56:56.635Z,2.80
2023-09-03T05:59:05.074Z,3.15
2023-09-03T06:01:10.070Z,3.50
2023-09-03T06:03:13.003Z,3.95
2023-09-03T06:05:15.944Z,3.85
2023-09-03T06:07:18.842Z,3.90
2023-09-03T06:09:23.056Z,4.82
2023-09-03T06:11:24.898Z,3.83
2023-09-03T06:13:27.795Z,4.35
2023-09-03T06:15:30.734Z,4.75
2023-09-03T06:17:33.665Z,4.97
2023-09-03T06:19:36.666Z,5.05
2023-09-03T06:21:39.501Z,4.68
2023-09-03T06:23:42.374Z,5.47
2023-09-03T06:25:46.722Z,5.47
2023-09-03T06:27:49.640Z,5.63
2023-09-03T06:29:52.487Z,6.65
2023-09-03T06:31:55.419Z,4.78
2023-09-03T06:33:58.294Z,5.75
2023-09-03T06:36:01.169Z,6.13
2023-09-03T06:38:04.077Z,5.28
2023-09-03T06:40:09.827Z,6.50
2023-09-03T06:42:13.613Z,5.82
2023-09-03T06:44:16.634Z,5.85
2023-09-03T06:46:19.448Z,5.85
2023-09-03T06:48:21.583Z,6.30
2023-09-03T06:50:24.599Z,6.65
2023-09-03T06:52:27.505Z,5.53
2023-09-03T06:54:30.347Z,6.47
2023-09-03T06:56:33.241Z,6.80
2023-09-03T06:58:37.411Z,6.65
2023-09-03T07:00:40.331Z,6.85
2023-09-03T07:02:43.217Z,7.45
2023-09-03T07:04:46.083Z,5.85
2023-09-03T07:06:48.926Z,6.07
2023-09-03T07:08:53.256Z,7.78
2023-09-03T07:11:00.751Z,7.10
2023-09-03T07:13:02.670Z,7.32
2023-09-03T07:15:08.719Z,6.97
2023-09-03T07:17:11.601Z,6.80
2023-09-03T07:19:14.576Z,7.93
2023-09-03T07:21:17.466Z,7.65
2023-09-03T07:23:19.337Z,7.57
2023-09-03T07:25:22.529Z,6.28
2023-09-03T07:27:25.377Z,7.15
2023-09-03T07:29:28.178Z,6.28
2023-09-03T07:31:32.359Z,7.82
2023-09-03T07:33:35.222Z,6.45
2023-09-03T07:35:38.045Z,6.88
2023-09-03T07:37:44.035Z,6.97
2023-09-03T07:39:46.675Z,7.72
2023-09-03T07:41:49.612Z,7.47
2023-09-03T07:43:52.746Z,8.88
2023-09-03T07:45:55.792Z,7.20
2023-09-03T07:48:00.149Z,7.53
2023-09-03T07:50:03.000Z,8.30
2023-09-03T07:52:07.912Z,7.88
2023-09-03T07:54:11.011Z,7.57
2023-09-03T07:56:13.788Z,8.13
2023-09-03T07:58:16.739Z,7.30
2023-09-03T08:00:20.676Z,7.72
2023-09-03T08:02:24.394Z,7.53
2023-09-03T08:04:27.624Z,6.55
2023-09-03T08:06:30.457Z,7.47
2023-09-03T08:08:33.326Z,8.85
2023-09-03T08:10:36.173Z,6.80
2023-09-03T08:12:39.058Z,8.30
2023-09-03T08:14:43.248Z,7.65
2023-09-03T08:16:46.293Z,7.80
2023-09-03T08:18:49.162Z,6.85
2023-09-03T08:20:54.196Z,6.65
2023-09-03T08:22:57.002Z,6.43
2023-09-03T08:24:59.825Z,7.35
2023-09-03T08:27:02.671Z,5.90
2023-09-03T08:29:05.565Z,6.10
2023-09-03T08:31:08.546Z,6.35
2023-09-03T08:33:11.481Z,6.82
2023-09-03T08:35:15.149Z,6.30
2023-09-03T08:37:19.416Z,6.40
2023-09-03T08:41:25.207Z,6.15
2023-09-03T08:43:30.343Z,5.68
2023-09-03T08:45:35.637Z,5.85
2023-09-03T08:47:41.528Z,6.35
2023-09-03T08:49:46.848Z,7.32
2023-09-03T08:51:48.809Z,6.28
2023-09-03T08:53:56.479Z,6.45
2023-09-03T08:55:59.585Z,6.47
2023-09-03T08:58:02.493Z,7.28
2023-09-03T09:00:06.777Z,6.80
2023-09-03T09:02:21.939Z,6.57
2023-09-03T09:04:24.186Z,7.03
2023-09-03T09:06:27.119Z,7.05
2023-09-03T09:08:30.613Z,5.40
2023-09-03T09:10:38.269Z,6.83
2023-09-03T09:12:45.026Z,6.47
2023-09-03T09:14:54.710Z,5.10
2023-09-03T09:16:57.670Z,4.97
2023-09-03T09:19:03.467Z,4.55
2023-09-03T09:21:07.247Z,5.32
2023-09-03T09:23:10.869Z,5.00
2023-09-03T09:25:20.484Z,4.40
2023-09-03T09:27:24.736Z,4.22
2023-09-03T09:29:27.573Z,4.25
2023-09-03T09:31:32.075Z,4.85
2023-09-03T09:33:35.005Z,4.22
2023-09-03T09:35:37.842Z,4.97
2023-09-03T09:37:41.641Z,4.55
2023-09-03T09:39:45.746Z,5.60
2023-09-03T09:41:48.575Z,4.15
2023-09-03T09:43:53.312Z,5.03
2023-09-03T09:45:56.173Z,4.60
2023-09-03T09:48:07.417Z,4.85
2023-09-03T09:50:10.760Z,3.83
2023-09-03T09:52:13.780Z,4.90
2023-09-03T09:54:16.712Z,4.03
2023-09-03T09:56:19.311Z,5.60
2023-09-03T09:58:22.213Z,3.85
2023-09-03T10:00:35.469Z,3.97
2023-09-03T10:02:39.496Z,4.65
2023-09-03T10:04:42.792Z,3.50
2023-09-03T10:06:45.736Z,5.20
2023-09-03T10:08:51.965Z,4.47
2023-09-03T10:10:55.040Z,4.53
2023-09-03T10:12:57.903Z,3.63
2023-09-03T10:15:01.048Z,4.03
2023-09-03T10:17:07.152Z,3.85
2023-09-03T10:19:15.445Z,4.13
2023-09-03T10:21:23.430Z,4.32
2023-09-03T10:23:31.875Z,3.83
2023-09-03T10:25:37.530Z,3.50
2023-09-03T10:27:42.659Z,3.85
2023-09-03T10:29:48.700Z,3.22
2023-09-03T10:31:53.161Z,3.55
2023-09-03T10:33:57.505Z,3.63
2023-09-03T10:38:32.014Z,3.40
2023-09-03T10:40:35.165Z,3.67
2023-09-03T10:42:37.162Z,3.45
2023-09-03T10:44:43.550Z,3.58
2023-09-03T10:47:02.390Z,3.55
2023-09-03T10:49:08.535Z,3.50
2023-09-03T10:53:37.654Z,3.70
2023-09-03T10:55:40.549Z,3.97
2023-09-03T10:57:43.273Z,4.00
2023-09-03T11:00:08.202Z,4.38
2023-09-03T11:02:26.180Z,4.50
2023-09-03T11:04:38.506Z,3.97
2023-09-03T11:06:41.691Z,3.92
2023-09-03T11:08:43.700Z,4.95
2023-09-03T11:10:47.019Z,3.55
2023-09-03T11:12:50.354Z,4.63
2023-09-03T11:14:54.446Z,4.80
2023-09-03T11:16:59.751Z,5.00
2023-09-03T11:19:04.364Z,3.53
2023-09-03T11:21:08.687Z,3.60
2023-09-03T11:25:14.698Z,3.50
2023-09-03T11:27:17.644Z,4.32
2023-09-03T11:29:21.665Z,4.13
2023-09-03T11:31:24.398Z,4.15
2023-09-03T11:33:28.842Z,3.92
2023-09-03T11:35:41.732Z,3.97
2023-09-03T11:37:45.968Z,4.57
2023-09-03T11:39:52.528Z,3.78
2023-09-03T11:41:55.678Z,3.97
2023-09-03T11:43:58.569Z,3.63
2023-09-03T11:46:05.801Z,4.22
2023-09-03T11:48:10.045Z,4.35
2023-09-03T11:52:18.235Z,3.20
2023-09-03T11:54:25.752Z,3.50
2023-09-03T11:56:31.306Z,4.30
2023-09-03T11:58:33.576Z,4.00
2023-09-03T12:00:37.569Z,4.55
2023-09-03T12:02:40.423Z,3.65
2023-09-03T12:04:44.768Z,3.92
2023-09-03T12:06:48.187Z,3.40
2023-09-03T12:08:51.175Z,3.67
2023-09-03T12:10:54.532Z,3.30
2023-09-03T12:12:57.418Z,3.40
2023-09-03T12:15:00.410Z,3.67
2023-09-03T12:17:03.336Z,4.05
2023-09-03T12:19:06.232Z,3.33
2023-09-03T12:21:10.117Z,3.60
2023-09-03T12:23:14.657Z,3.50
2023-09-03T12:25:17.893Z,4.00
2023-09-03T12:27:22.138Z,3.38
2023-09-03T12:29:31.808Z,3.97
2023-09-03T12:31:43.275Z,3.67
2023-09-03T12:33:48.864Z,4.20
2023-09-03T12:36:08.474Z,3.53
2023-09-03T12:38:11.431Z,3.67
2023-09-03T12:40:14.929Z,3.42
2023-09-03T12:42:19.064Z,3.30
2023-09-03T12:44:23.276Z,3.28
2023-09-03T12:48:28.017Z,2.60
2023-09-03T12:50:30.932Z,3.83
2023-09-03T12:52:33.905Z,3.97
2023-09-03T12:54:35.935Z,3.78
2023-09-03T12:56:38.758Z,3.92
2023-09-03T12:58:43.218Z,3.67
2023-09-03T13:00:47.487Z,3.78
2023-09-03T13:04:53.478Z,3.35
2023-09-03T13:06:56.382Z,3.88
2023-09-03T13:08:59.165Z,3.30
2023-09-03T13:11:02.599Z,3.10
2023-09-03T13:13:08.702Z,3.08
2023-09-03T13:15:12.236Z,3.70
2023-09-03T13:17:16.392Z,3.30
2023-09-03T13:19:19.228Z,3.17
2023-09-03T13:21:22.404Z,2.35
2023-09-03T13:23:25.572Z,3.00
2023-09-03T13:25:34.922Z,3.40
2023-09-03T13:27:38.398Z,3.42
2023-09-03T13:29:41.287Z,3.13
2023-09-03T13:31:44.143Z,3.97
2023-09-03T13:33:49.018Z,3.78
2023-09-03T13:35:53.329Z,3.72
2023-09-03T13:39:58.901Z,4.03
2023-09-03T13:42:01.952Z,3.58
2023-09-03T13:44:05.036Z,3.65
2023-09-03T13:46:07.894Z,3.50
2023-09-03T13:48:09.971Z,3.80
2023-09-03T13:50:14.193Z,3.63
2023-09-03T13:54:20.173Z,4.20
2023-09-03T13:56:23.013Z,3.50
2023-09-03T13:58:25.816Z,4.38
2023-09-03T14:00:28.961Z,3.83
2023-09-03T14:02:30.979Z,3.80
2023-09-03T14:04:34.055Z,3.80
2023-09-03T14:06:39.359Z,4.28
2023-09-03T14:08:42.324Z,4.82
2023-09-03T14:10:45.334Z,3.53
2023-09-03T14:12:48.274Z,4.50
2023-09-03T14:14:50.191Z,4.10
2023-09-03T14:16:53.104Z,4.05
2023-09-03T14:18:55.955Z,4.03
2023-09-03T14:20:58.965Z,4.53
2023-09-03T14:23:03.141Z,4.22
2023-09-03T14:27:09.221Z,3.15
2023-09-03T14:29:12.048Z,4.05
2023-09-03T14:31:14.848Z,4.10
2023-09-03T14:33:17.732Z,4.03
2023-09-03T14:35:20.593Z,4.55
2023-09-03T14:37:24.458Z,4.45
2023-09-03T14:39:28.771Z,4.30
2023-09-03T14:43:33.383Z,4.40
2023-09-03T14:45:36.208Z,3.72
2023-09-03T14:47:41.018Z,3.28
2023-09-03T14:49:45.954Z,3.67
2023-09-03T14:51:49.390Z,4.13
2023-09-03T14:53:52.999Z,4.40
2023-09-03T14:55:57.264Z,4.07
2023-09-03T15:00:04.074Z,4.20
2023-09-03T15:02:13.113Z,4.10
2023-09-03T15:04:20.814Z,4.22
2023-09-03T15:06:25.047Z,4.22
2023-09-03T15:08:28.048Z,4.45
2023-09-03T15:10:31.543Z,4.55
2023-09-03T15:12:35.753Z,4.03
2023-09-03T15:14:39.409Z,3.92
2023-09-03T15:16:42.545Z,4.68
2023-09-03T15:18:45.461Z,4.28
2023-09-03T15:20:53.668Z,4.40
2023-09-03T15:22:55.575Z,4.57
2023-09-03T15:24:58.425Z,4.30
2023-09-03T15:27:01.509Z,3.85
2023-09-03T15:29:05.979Z,3.60
2023-09-03T15:31:08.935Z,4.15
2023-09-03T15:33:14.524Z,4.22
2023-09-03T15:35:42.357Z,4.18
2023-09-03T15:37:47.785Z,3.65
2023-09-03T15:39:50.981Z,3.92
2023-09-03T15:41:53.842Z,3.78
2023-09-03T15:43:57.228Z,4.28
2023-09-03T15:46:01.098Z,4.30
2023-09-03T15:48:04.692Z,4.35
2023-09-03T15:50:08.282Z,3.80
2023-09-03T15:52:11.240Z,4.20
2023-09-03T15:54:15.750Z,4.40
2023-09-03T15:56:19.896Z,3.65
2023-09-03T15:58:23.021Z,4.80
2023-09-03T16:00:26.207Z,3.80
2023-09-03T16:02:30.579Z,4.47
2023-09-03T16:06:36.115Z,4.07
2023-09-03T16:08:38.977Z,3.92
2023-09-03T16:10:41.997Z,4.82
2023-09-03T16:12:43.959Z,3.83
2023-09-03T16:14:46.784Z,3.97
2023-09-03T16:16:49.699Z,4.20
2023-09-03T16:18:53.943Z,4.93
2023-09-03T16:22:59.495Z,3.97
2023-09-03T16:25:02.377Z,4.20
2023-09-03T16:27:05.456Z,4.78
2023-09-03T16:29:08.260Z,3.95
2023-09-03T16:31:12.417Z,3.55
2023-09-03T16:33:15.352Z,4.20
2023-09-03T16:35:20.643Z,3.55
2023-09-03T16:37:24.059Z,3.95
2023-09-03T16:39:27.153Z,4.00
2023-09-03T16:41:30.881Z,4.15
2023-09-03T16:43:36.839Z,4.35
2023-09-03T16:45:43.526Z,4.50
2023-09-03T16:47:48.150Z,4.15
2023-09-03T16:49:52.899Z,4.60
2023-09-03T16:51:57.006Z,4.10
2023-09-03T16:53:59.866Z,3.97
2023-09-03T16:56:02.845Z,4.47
2023-09-03T16:58:06.041Z,4.40
2023-09-03T17:00:09.937Z,4.28
2023-09-03T17:02:14.183Z,4.65
2023-09-03T17:04:17.048Z,4.50
2023-09-03T17:06:21.134Z,4.70
2023-09-03T17:08:26.928Z,4.88
2023-09-03T17:10:29.845Z,4.50
2023-09-03T17:12:32.681Z,5.00
2023-09-03T17:14:35.628Z,5.13
2023-09-03T17:16:38.676Z,4.05
2023-09-03T17:18:40.572Z,4.90
2023-09-03T17:20:45.919Z,4.85
2023-09-03T17:22:48.886Z,4.35
2023-09-03T17:24:53.340Z,4.70
2023-09-03T17:26:56.144Z,4.50
2023-09-03T17:29:00.262Z,5.32
2023-09-03T17:31:03.414Z,4.60
2023-09-03T17:33:06.933Z,4.05
2023-09-03T17:35:09.802Z,4.55
2023-09-03T17:37:14.428Z,4.90
2023-09-03T17:39:18.331Z,4.50
2023-09-03T17:41:23.582Z,4.72
2023-09-03T17:43:26.558Z,4.45
2023-09-03T17:45:28.453Z,4.53
2023-09-03T17:47:31.902Z,4.63
2023-09-03T17:49:34.772Z,5.37
2023-09-03T17:51:37.714Z,4.50
2023-09-03T17:53:40.599Z,4.90
2023-09-03T17:55:43.426Z,4.57
2023-09-03T17:57:47.627Z,5.47
2023-09-03T17:59:50.664Z,5.13
2023-09-03T18:01:53.617Z,5.03
2023-09-03T18:03:56.439Z,4.95
2023-09-03T18:05:59.543Z,5.05
2023-09-03T18:08:02.379Z,4.78
2023-09-03T18:10:05.691Z,4.70
2023-09-03T18:12:10.600Z,4.47
2023-09-03T18:14:14.844Z,4.35
2023-09-03T18:16:17.076Z,5.40
2023-09-03T18:18:20.331Z,5.32
2023-09-03T18:20:24.782Z,5.82
2023-09-03T18:22:26.887Z,5.82
2023-09-03T18:24:29.660Z,6.18
2023-09-03T18:26:33.099Z,4.80
2023-09-03T18:28:36.051Z,5.10
2023-09-03T18:30:40.315Z,4.50
2023-09-03T18:32:43.330Z,5.72
2023-09-03T18:34:46.225Z,4.47
2023-09-03T18:36:49.189Z,4.68
2023-09-03T18:38:54.350Z,4.88
2023-09-03T18:40:59.454Z,4.35
2023-09-03T18:43:01.342Z,4.03
2023-09-03T18:45:04.587Z,4.07
2023-09-03T18:47:09.052Z,4.72
2023-09-03T18:49:12.111Z,3.97
2023-09-03T18:51:15.022Z,4.75
2023-09-03T18:53:16.926Z,3.38
2023-09-03T18:55:20.410Z,4.82
2023-09-03T18:57:23.356Z,4.23
2023-09-03T18:59:26.354Z,3.92
2023-09-03T19:01:30.141Z,4.20
2023-09-03T19:03:34.476Z,3.92
2023-09-03T19:07:41.257Z,4.43
2023-09-03T19:09:44.625Z,4.25
2023-09-03T19:11:47.457Z,4.10
2023-09-03T19:13:50.483Z,4.22
2023-09-03T19:15:55.225Z,5.10
2023-09-03T19:17:58.385Z,4.60
2023-09-03T19:20:02.841Z,5.50
2023-09-03T19:22:06.004Z,4.32
2023-09-03T19:24:09.156Z,4.90
2023-09-03T19:26:12.115Z,4.43
2023-09-03T19:28:16.564Z,4.50
2023-09-03T19:30:19.552Z,4.75
2023-09-03T19:32:22.474Z,4.97
2023-09-03T19:34:26.362Z,4.60
2023-09-03T19:36:30.660Z,4.05
2023-09-03T19:38:35.757Z,4.45
2023-09-03T19:40:38.903Z,4.40
2023-09-03T19:42:52.437Z,4.35
2023-09-03T19:44:56.568Z,4.28
2023-09-03T19:46:59.688Z,4.25
2023-09-03T19:49:04.335Z,4.40
2023-09-03T19:51:07.200Z,4.72
2023-09-03T19:53:11.399Z,4.32
2023-09-03T19:55:14.421Z,3.83
2023-09-03T19:57:17.256Z,4.50
2023-09-03T19:59:20.241Z,3.70
2023-09-03T20:01:23.184Z,4.28
2023-09-03T20:03:26.201Z,4.00
2023-09-03T20:05:29.128Z,4.25
2023-09-03T20:07:32.046Z,4.13
2023-09-03T20:09:37.616Z,4.80
2023-09-03T20:11:40.902Z,4.88
2023-09-03T20:13:44.589Z,4.00
2023-09-03T20:15:55.980Z,4.60
2023-09-03T20:18:00.270Z,4.30
2023-09-03T20:20:05.509Z,4.28
2023-09-03T20:22:08.405Z,4.20
2023-09-03T20:24:11.277Z,3.70
2023-09-03T20:26:17.234Z,4.35
2023-09-03T20:28:28.406Z,4.35
2023-09-03T20:30:38.641Z,4.07
2023-09-03T20:32:41.581Z,4.90
2023-09-03T20:34:44.557Z,5.07
2023-09-03T20:36:47.394Z,4.72
2023-09-03T20:38:50.231Z,4.15
2023-09-03T20:40:53.525Z,4.25
2023-09-03T20:42:57.768Z,4.20
2023-09-03T20:45:00.652Z,3.95
2023-09-03T20:47:03.801Z,3.88
2023-09-03T20:49:06.662Z,3.95
2023-09-03T20:51:09.568Z,4.20
2023-09-03T20:53:13.200Z,4.13
2023-09-03T20:55:15.153Z,4.43
2023-09-03T20:57:18.165Z,4.50
2023-09-03T20:59:22.419Z,3.55
2023-09-03T21:01:27.058Z,3.95
2023-09-03T21:03:37.262Z,4.18
2023-09-03T21:05:40.055Z,4.40
2023-09-03T21:07:42.951Z,4.25
2023-09-03T21:09:46.098Z,3.80
2023-09-03T21:11:48.976Z,4.38
2023-09-03T21:13:51.799Z,3.95
2023-09-03T21:15:57.079Z,3.90
2023-09-03T21:18:00.098Z,4.57
2023-09-03T21:20:05.116Z,3.65
2023-09-03T21:22:08.009Z,4.45
2023-09-03T21:24:10.842Z,3.72
2023-09-03T21:26:14.452Z,3.95
2023-09-03T21:28:17.349Z,3.70
2023-09-03T21:30:20.217Z,4.40
2023-09-03T21:32:23.728Z,4.63
2023-09-03T21:34:28.626Z,5.23
2023-09-03T21:36:31.549Z,4.40
2023-09-03T21:38:34.389Z,4.53
2023-09-03T21:40:37.860Z,4.40
2023-09-03T21:42:40.757Z,4.93
2023-09-03T21:44:44.340Z,4.68
2023-09-03T21:46:47.222Z,4.03
2023-09-03T21:48:51.442Z,4.78
2023-09-03T21:53:12.116Z,4.70
2023-09-03T21:55:14.989Z,5.70
2023-09-03T21:57:17.841Z,4.30
2023-09-03T21:59:19.812Z,5.32
2023-09-03T22:01:22.841Z,5.43
2023-09-03T22:03:25.911Z,5.30
2023-09-03T22:05:31.242Z,4.97
2023-09-03T22:07:34.547Z,5.30
2023-09-03T22:09:37.472Z,5.43
2023-09-03T22:11:40.379Z,5.50
2023-09-03T22:13:43.235Z,5.68
2023-09-03T22:15:46.140Z,5.20
2023-09-03T22:17:49.139Z,5.40
2023-09-03T22:19:52.523Z,5.28
2023-09-03T22:21:57.446Z,4.93
2023-09-03T22:24:00.335Z,5.38
2023-09-03T22:26:03.235Z,4.88
2023-09-03T22:28:08.130Z,4.68
2023-09-03T22:30:12.335Z,4.60
2023-09-03T22:32:15.229Z,5.40
2023-09-03T22:34:18.106Z,4.50
2023-09-03T22:36:20.971Z,4.85
2023-09-03T22:38:25.264Z,4.63
2023-09-03T22:40:28.220Z,4.97
2023-09-03T22:42:31.179Z,4.38
2023-09-03T22:44:34.097Z,4.50
2023-09-03T22:46:37.046Z,4.18
2023-09-03T22:48:39.920Z,4.43
2023-09-03T22:50:42.763Z,4.43
2023-09-03T22:52:45.617Z,4.15
2023-09-03T22:54:49.788Z,5.15
2023-09-03T22:56:52.645Z,4.18
2023-09-03T22:58:59.861Z,4.78
2023-09-03T23:01:04.144Z,4.68
2023-09-03T23:03:07.089Z,4.75
2023-09-03T23:05:10.640Z,5.10
2023-09-03T23:07:15.596Z,4.80
2023-09-03T23:09:18.442Z,5.35
2023-09-03T23:11:22.610Z,5.63
2023-09-03T23:13:25.454Z,4.68
2023-09-03T23:15:28.300Z,5.82
2023-09-03T23:17:31.819Z,5.38
2023-09-03T23:21:39.655Z,4.90
2023-09-03T23:23:42.453Z,4.85
2023-09-03T23:25:45.296Z,4.47
2023-09-03T23:27:49.545Z,4.40
2023-09-03T23:29:52.408Z,4.63
2023-09-03T23:31:55.228Z,4.88
2023-09-03T23:33:58.118Z,4.30
2023-09-03T23:36:01.124Z,5.10
2023-09-03T23:38:04.171Z,5.45
2023-09-03T23:40:07.848Z,4.20
2023-09-03T23:42:09.698Z,4.38
2023-09-03T23:44:13.917Z,4.93
2023-09-03T23:46:16.809Z,5.50
2023-09-03T23:48:18.820Z,5.03
2023-09-03T23:50:21.695Z,5.20
2023-09-03T23:52:23.638Z,5.45
2023-09-03T23:54:27.056Z,5.05
2023-09-03T23:56:29.958Z,5.68
2023-09-03T23:58:32.828Z,4.53
